createdAt,value
2023-05-04T00:04:54.097Z,3.90
2023-05-04T00:08:53.836Z,4.20
2023-05-04T00:12:53.950Z,3.90
2023-05-04T00:16:53.828Z,4.30
2023-05-04T00:20:53.960Z,4.40
2023-05-04T00:24:54.024Z,4.30
2023-05-04T00:28:54.040Z,4.50
2023-05-04T00:32:53.949Z,4.70
2023-05-04T00:36:55.436Z,4.50
2023-05-04T00:40:53.957Z,4.60
2023-05-04T00:48:54.194Z,4.30
2023-05-04T00:52:57.357Z,4.50
2023-05-04T00:56:55.511Z,5.00
2023-05-04T01:00:54.250Z,5.00
2023-05-04T01:04:54.111Z,5.10
2023-05-04T01:08:59.076Z,5.10
2023-05-04T01:12:59.959Z,5.50
2023-05-04T01:16:58.152Z,5.50
2023-05-04T01:20:54.063Z,6.10
2023-05-04T01:28:59.947Z,5.30
2023-05-04T01:32:56.660Z,5.70
2023-05-04T01:36:54.977Z,6.10
2023-05-04T01:40:54.242Z,6.00
2023-05-04T01:48:54.652Z,6.80
2023-05-04T01:52:54.310Z,6.40
2023-05-04T01:56:54.324Z,6.20
2023-05-04T02:00:54.779Z,6.70
2023-05-04T02:04:54.377Z,6.60
2023-05-04T02:08:54.562Z,6.10
2023-05-04T02:12:54.391Z,6.30
2023-05-04T02:16:55.225Z,6.30
2023-05-04T02:20:54.946Z,6.50
2023-05-04T02:24:54.460Z,6.80
2023-05-04T02:28:54.274Z,7.00
2023-05-04T02:32:54.342Z,7.10
2023-05-04T02:40:54.471Z,7.50
2023-05-04T02:44:54.265Z,7.50
2023-05-04T02:48:54.373Z,6.90
2023-05-04T02:52:54.316Z,7.30
2023-05-04T02:56:54.588Z,7.60
2023-05-04T03:04:54.433Z,7.60
2023-05-04T03:08:54.888Z,7.70
2023-05-04T03:12:54.455Z,7.70
2023-05-04T03:24:54.570Z,7.90
2023-05-04T03:28:54.463Z,8.50
2023-05-04T03:36:54.817Z,8.50
2023-05-04T03:40:55.383Z,8.60
2023-05-04T03:44:54.683Z,8.60
2023-05-04T03:48:56.237Z,9.20
2023-05-04T03:52:54.980Z,8.50
2023-05-04T03:56:54.486Z,9.50
2023-05-04T04:00:54.860Z,8.90
2023-05-04T04:08:54.696Z,9.70
2023-05-04T04:12:54.626Z,9.70
2023-05-04T04:20:55.162Z,9.80
2023-05-04T04:24:55.277Z,10.50
2023-05-04T04:28:54.673Z,9.90
2023-05-04T04:32:56.193Z,10.30
2023-05-04T04:36:54.804Z,11.00
2023-05-04T04:40:54.636Z,10.90
2023-05-04T04:48:54.721Z,11.40
2023-05-04T04:56:54.768Z,11.20
2023-05-04T05:00:57.276Z,11.10
2023-05-04T05:08:55.336Z,11.20
2023-05-04T05:16:55.068Z,10.70
2023-05-04T05:20:55.473Z,11.50
2023-05-04T05:24:54.817Z,10.90
2023-05-04T05:28:55.068Z,10.60
2023-05-04T05:32:54.850Z,10.60
2023-05-04T05:36:54.722Z,11.50
2023-05-04T05:40:55.153Z,10.00
2023-05-04T05:44:54.759Z,10.30
2023-05-04T05:48:55.395Z,10.70
2023-05-04T05:52:54.757Z,10.50
2023-05-04T05:56:55.121Z,10.30
2023-05-04T06:00:54.947Z,10.60
2023-05-04T06:04:55.005Z,10.20
2023-05-04T06:08:54.853Z,10.10
2023-05-04T06:12:55.242Z,9.90
2023-05-04T06:16:54.898Z,10.20
2023-05-04T06:20:57.488Z,9.80
2023-05-04T06:24:58.935Z,9.90
2023-05-04T06:28:55.665Z,9.70
2023-05-04T06:32:54.953Z,10.00
2023-05-04T06:36:55.633Z,9.10
2023-05-04T06:40:54.894Z,10.10
2023-05-04T06:44:55.001Z,9.60
2023-05-04T06:48:54.935Z,9.60
2023-05-04T06:53:02.178Z,8.80
2023-05-04T06:56:55.624Z,10.20
2023-05-04T07:00:55.018Z,9.60
2023-05-04T07:04:56.630Z,9.10
2023-05-04T07:08:55.592Z,9.40
2023-05-04T07:12:55.183Z,9.60
2023-05-04T07:16:55.318Z,9.80
2023-05-04T07:21:01.790Z,9.20
2023-05-04T07:24:56.769Z,10.00
2023-05-04T07:28:55.132Z,8.60
2023-05-04T07:32:55.401Z,10.00
2023-05-04T07:36:55.125Z,9.00
2023-05-04T07:40:55.807Z,9.70
2023-05-04T07:44:55.303Z,9.30
2023-05-04T07:48:55.493Z,10.00
2023-05-04T07:52:55.194Z,8.80
2023-05-04T07:56:55.276Z,9.10
2023-05-04T08:00:55.175Z,9.80
2023-05-04T08:04:55.307Z,8.60
2023-05-04T08:08:55.150Z,9.00
2023-05-04T08:12:55.880Z,9.10
2023-05-04T08:16:55.259Z,8.50
2023-05-04T08:20:55.580Z,9.10
2023-05-04T08:24:55.215Z,8.90
2023-05-04T08:29:06.201Z,8.50
2023-05-04T08:32:55.551Z,9.00
2023-05-04T08:36:55.442Z,8.80
2023-05-04T08:40:55.340Z,9.10
2023-05-04T08:44:56.432Z,8.70
2023-05-04T08:48:55.386Z,8.60
2023-05-04T08:52:59.904Z,8.70
2023-05-04T08:56:56.426Z,8.70
2023-05-04T09:00:58.099Z,8.40
2023-05-04T09:04:36.186Z,8.70
2023-05-04T09:04:55.332Z,8.70
2023-05-04T09:08:55.602Z,8.40
2023-05-04T09:12:55.782Z,8.60
2023-05-04T09:16:56.217Z,7.90
2023-05-04T09:20:55.585Z,8.30
2023-05-04T09:25:04.770Z,8.00
2023-05-04T09:28:56.767Z,8.30
2023-05-04T09:32:56.245Z,8.00
2023-05-04T09:36:58.233Z,7.80
2023-05-04T09:40:55.666Z,7.80
2023-05-04T09:45:00.558Z,8.00
2023-05-04T09:52:56.505Z,7.50
2023-05-04T09:57:02.750Z,7.70
2023-05-04T10:00:56.253Z,7.80
2023-05-04T10:04:57.118Z,7.90
2023-05-04T10:08:58.732Z,7.00
2023-05-04T10:12:55.906Z,7.40
2023-05-04T10:17:04.854Z,7.70
2023-05-04T10:21:15.264Z,7.10
2023-05-04T10:25:11.448Z,6.10
2023-05-04T10:29:10.293Z,6.20
2023-05-04T10:32:57.044Z,6.40
2023-05-04T10:36:57.014Z,6.20
2023-05-04T10:40:56.334Z,6.30
2023-05-04T10:44:56.206Z,6.80
2023-05-04T10:48:55.827Z,6.10
2023-05-04T10:52:56.781Z,6.40
2023-05-04T10:57:01.337Z,6.50
2023-05-04T11:00:56.021Z,6.50
2023-05-04T11:05:06.270Z,6.60
2023-05-04T11:09:00.857Z,6.30
2023-05-04T11:13:04.720Z,6.30
2023-05-04T11:17:12.696Z,6.20
2023-05-04T11:20:56.623Z,6.10
2023-05-04T11:24:56.307Z,6.60
2023-05-04T11:28:55.806Z,6.50
2023-05-04T11:32:56.407Z,6.50
2023-05-04T11:36:56.571Z,6.30
2023-05-04T11:40:55.896Z,6.30
2023-05-04T11:44:56.004Z,5.80
2023-05-04T11:48:55.760Z,5.90
2023-05-04T11:56:55.978Z,6.10
2023-05-04T12:00:57.673Z,6.60
2023-05-04T12:04:56.251Z,6.50
2023-05-04T12:09:00.791Z,5.90
2023-05-04T12:12:56.292Z,6.20
2023-05-04T12:16:56.719Z,5.30
2023-05-04T12:20:55.965Z,5.10
2023-05-04T12:24:56.777Z,5.60
2023-05-04T12:28:56.042Z,6.20
2023-05-04T12:32:56.093Z,6.00
2023-05-04T12:36:56.103Z,6.10
2023-05-04T12:40:59.327Z,5.40
2023-05-04T12:44:56.054Z,5.20
2023-05-04T12:48:56.204Z,5.20
2023-05-04T12:52:56.701Z,5.90
2023-05-04T12:56:56.994Z,6.10
2023-05-04T13:00:56.951Z,6.20
2023-05-04T13:08:56.420Z,6.20
2023-05-04T13:12:56.335Z,5.70
2023-05-04T13:16:56.191Z,5.80
2023-05-04T13:20:56.417Z,6.00
2023-05-04T13:24:56.155Z,7.00
2023-05-04T13:32:56.410Z,5.90
2023-05-04T13:36:56.101Z,5.10
2023-05-04T13:40:56.548Z,5.50
2023-05-04T13:44:56.343Z,5.40
2023-05-04T13:48:57.183Z,5.70
2023-05-04T13:52:56.334Z,6.10
2023-05-04T13:56:56.345Z,6.60
2023-05-04T14:00:56.776Z,6.90
2023-05-04T14:04:56.254Z,7.20
2023-05-04T14:08:56.168Z,7.20
2023-05-04T14:12:56.278Z,7.20
2023-05-04T14:16:56.342Z,8.20
2023-05-04T14:20:56.606Z,8.20
2023-05-04T14:24:56.407Z,10.00
2023-05-04T14:28:56.369Z,9.30
2023-05-04T14:32:57.073Z,10.10
2023-05-04T14:36:56.692Z,10.40
2023-05-04T14:40:56.430Z,10.50
2023-05-04T14:44:56.443Z,10.90
2023-05-04T14:48:56.439Z,11.00
2023-05-04T14:52:56.460Z,11.50
2023-05-04T14:56:57.867Z,11.90
2023-05-04T15:00:56.481Z,11.60
2023-05-04T15:04:56.387Z,11.30
2023-05-04T15:08:56.489Z,11.70
2023-05-04T15:12:58.205Z,11.70
2023-05-04T15:16:56.746Z,12.20
2023-05-04T15:20:56.361Z,11.10
2023-05-04T15:24:56.715Z,11.50
2023-05-04T15:28:56.565Z,12.20
2023-05-04T15:32:56.720Z,12.30
2023-05-04T15:36:56.494Z,12.20
2023-05-04T15:40:56.538Z,12.40
2023-05-04T15:44:56.472Z,13.90
2023-05-04T15:48:56.754Z,13.20
2023-05-04T15:52:56.524Z,14.10
2023-05-04T15:56:56.872Z,14.10
2023-05-04T16:00:58.746Z,14.00
2023-05-04T16:04:56.846Z,13.40
2023-05-04T16:08:56.589Z,12.90
2023-05-04T16:12:59.563Z,13.30
2023-05-04T16:16:59.926Z,13.70
2023-05-04T16:20:56.904Z,13.00
2023-05-04T16:24:56.740Z,13.00
2023-05-04T16:28:56.751Z,13.60
2023-05-04T16:32:56.693Z,14.60
2023-05-04T16:36:56.839Z,13.00
2023-05-04T16:40:56.761Z,12.90
2023-05-04T16:44:56.694Z,12.90
2023-05-04T16:48:56.653Z,13.40
2023-05-04T16:52:56.995Z,13.30
2023-05-04T16:56:56.637Z,14.20
2023-05-04T17:00:57.371Z,13.90
2023-05-04T17:04:56.790Z,13.40
2023-05-04T17:08:56.862Z,14.20
2023-05-04T17:12:56.754Z,14.00
2023-05-04T17:16:56.992Z,13.30
2023-05-04T17:20:56.770Z,13.90
2023-05-04T17:24:57.087Z,13.20
2023-05-04T17:28:56.728Z,13.00
2023-05-04T17:36:56.915Z,13.20
2023-05-04T17:40:56.854Z,13.50
2023-05-04T17:44:56.886Z,13.10
2023-05-04T17:48:56.883Z,12.80
2023-05-04T17:52:57.216Z,13.10
2023-05-04T17:56:56.843Z,13.10
2023-05-04T18:00:57.001Z,13.30
2023-05-04T18:04:56.834Z,12.40
2023-05-04T18:08:57.066Z,12.90
2023-05-04T18:12:59.242Z,12.80
2023-05-04T18:16:57.152Z,13.10
2023-05-04T18:20:57.211Z,13.30
2023-05-04T18:24:57.262Z,12.50
2023-05-04T18:32:57.203Z,12.90
2023-05-04T18:36:56.972Z,11.90
2023-05-04T18:40:57.155Z,12.00
2023-05-04T18:44:56.968Z,12.00
2023-05-04T18:48:57.645Z,11.70
2023-05-04T18:52:56.944Z,11.60
2023-05-04T18:56:57.813Z,12.30
2023-05-04T19:00:57.495Z,12.10
2023-05-04T19:04:57.532Z,11.50
2023-05-04T19:08:57.926Z,10.40
2023-05-04T19:12:58.398Z,12.80
2023-05-04T19:16:57.038Z,5.80
2023-05-04T19:20:57.276Z,3.30
2023-05-04T19:24:57.339Z,2.40
2023-05-04T19:28:57.511Z,2.30
2023-05-04T19:32:57.103Z,1.90
2023-05-04T19:36:58.323Z,2.40
2023-05-04T19:40:57.199Z,2.40
2023-05-04T19:44:57.378Z,1.70
2023-05-04T19:48:57.356Z,2.00
2023-05-04T19:52:57.472Z,1.90
2023-05-04T19:56:57.311Z,2.40
2023-05-04T20:00:57.571Z,2.00
2023-05-04T20:08:57.559Z,1.50
2023-05-04T20:12:57.300Z,1.40
2023-05-04T20:16:57.463Z,1.80
2023-05-04T20:20:57.355Z,1.40
2023-05-04T20:24:57.480Z,1.50
2023-05-04T20:28:57.257Z,1.40
2023-05-04T20:32:57.485Z,1.40
2023-05-04T20:36:57.523Z,1.50
2023-05-04T20:41:03.860Z,1.30
2023-05-04T20:44:57.299Z,1.30
2023-05-04T20:48:58.349Z,1.50
2023-05-04T20:53:00.118Z,1.30
2023-05-04T20:56:57.564Z,1.30
2023-05-04T21:01:01.216Z,1.40
2023-05-04T21:04:57.672Z,1.70
2023-05-04T21:08:57.437Z,3.80
2023-05-04T21:12:57.567Z,4.90
2023-05-04T21:16:57.394Z,6.30
2023-05-04T21:20:57.504Z,3.40
2023-05-04T21:24:57.681Z,3.90
2023-05-04T21:28:57.730Z,5.40
2023-05-04T21:36:57.667Z,3.80
2023-05-04T21:41:09.130Z,4.30
2023-05-04T21:44:57.776Z,5.30
2023-05-04T21:48:57.572Z,4.90
2023-05-04T21:52:57.844Z,4.70
2023-05-04T21:56:57.801Z,4.60
2023-05-04T22:00:57.641Z,6.00
2023-05-04T22:04:57.527Z,3.50
2023-05-04T22:08:57.596Z,4.60
2023-05-04T22:12:57.650Z,3.40
2023-05-04T22:17:00.516Z,3.80
2023-05-04T22:20:57.588Z,3.10
2023-05-04T22:24:57.680Z,1.70
2023-05-04T22:28:57.571Z,1.50
2023-05-04T22:32:57.994Z,3.20
2023-05-04T22:36:57.635Z,1.90
2023-05-04T22:40:57.665Z,1.90
2023-05-04T22:44:57.803Z,1.50
2023-05-04T22:48:57.757Z,1.80
2023-05-04T22:52:57.725Z,1.40
2023-05-04T23:00:57.995Z,1.50
2023-05-04T23:04:58.645Z,1.50
2023-05-04T23:09:01.009Z,1.60
2023-05-04T23:12:57.970Z,1.20
2023-05-04T23:16:57.953Z,1.30
2023-05-04T23:20:57.754Z,1.50
2023-05-04T23:24:58.207Z,1.30
2023-05-04T23:28:57.883Z,1.70
2023-05-04T23:32:58.267Z,1.90
2023-05-04T23:36:57.816Z,1.40
2023-05-04T23:40:58.090Z,1.70
2023-05-04T23:44:57.807Z,1.40
2023-05-04T23:48:58.306Z,1.50
2023-05-04T23:52:57.982Z,1.50
